sensor_id;sensor_type;location;lat;lon;timestamp;pressure;altitude;pressure_sealevel;temperature;humidity
13209;BME280;6669;42.678;23.332;2023-03-26T00:01:30;94069.97;;;9.20;100.00
13209;BME280;6669;42.678;23.332;2023-03-26T00:03:59;94037.06;;;9.05;100.00
13209;BME280;6669;42.678;23.332;2023-03-26T00:06:31;94034.53;;;8.97;100.00
13209;BME280;6669;42.678;23.332;2023-03-26T00:09:00;94039.09;;;8.95;100.00
13209;BME280;6669;42.678;23.332;2023-03-26T00:11:29;94039.81;;;8.89;100.00
13209;BME280;6669;42.678;23.332;2023-03-26T00:13:59;94033.81;;;8.88;100.00
13209;BME280;6669;42.678;23.332;2023-03-26T00:16:29;94069.44;;;9.09;100.00
13209;BME280;6669;42.678;23.332;2023-03-26T00:18:58;94072.91;;;9.02;100.00
13209;BME280;6669;42.678;23.332;2023-03-26T00:21:29;94047.88;;;8.94;100.00
13209;BME280;6669;42.678;23.332;2023-03-26T00:24:00;94028.91;;;8.93;100.00
13209;BME280;6669;42.678;23.332;2023-03-26T00:26:30;94049.06;;;9.06;100.00
13209;BME280;6669;42.678;23.332;2023-03-26T00:28:59;94033.22;;;9.01;100.00
13209;BME280;6669;42.678;23.332;2023-03-26T00:31:29;94034.03;;;9.02;100.00
13209;BME280;6669;42.678;23.332;2023-03-26T00:33:58;94014.06;;;8.87;100.00
13209;BME280;6669;42.678;23.332;2023-03-26T00:36:31;94033.94;;;9.10;100.00
13209;BME280;6669;42.678;23.332;2023-03-26T00:39:02;93995.53;;;8.75;100.00
13209;BME280;6669;42.678;23.332;2023-03-26T00:41:31;94020.78;;;8.96;100.00
13209;BME280;6669;42.678;23.332;2023-03-26T00:44:03;94011.22;;;8.97;100.00
13209;BME280;6669;42.678;23.332;2023-03-26T00:46:31;94036.19;;;9.13;100.00
13209;BME280;6669;42.678;23.332;2023-03-26T00:49:00;94036.59;;;9.02;100.00
13209;BME280;6669;42.678;23.332;2023-03-26T00:51:30;94034.19;;;9.00;100.00
13209;BME280;6669;42.678;23.332;2023-03-26T00:53:59;94018.09;;;8.90;100.00
13209;BME280;6669;42.678;23.332;2023-03-26T00:56:27;94029.47;;;9.04;100.00
13209;BME280;6669;42.678;23.332;2023-03-26T00:58:58;94012.56;;;8.93;100.00
13209;BME280;6669;42.678;23.332;2023-03-26T01:01:27;94017.94;;;9.06;100.00
13209;BME280;6669;42.678;23.332;2023-03-26T01:04:19;94043.78;;;9.29;100.00
13209;BME280;6669;42.678;23.332;2023-03-26T01:07:02;94042.25;;;9.35;100.00
13209;BME280;6669;42.678;23.332;2023-03-26T01:09:35;94046.84;;;9.33;100.00
13209;BME280;6669;42.678;23.332;2023-03-26T01:12:11;94014.09;;;9.17;100.00
13209;BME280;6669;42.678;23.332;2023-03-26T01:14:41;94023.03;;;9.14;100.00
13209;BME280;6669;42.678;23.332;2023-03-26T01:17:10;94049.06;;;9.21;100.00
13209;BME280;6669;42.678;23.332;2023-03-26T01:19:44;94058.00;;;9.19;100.00
13209;BME280;6669;42.678;23.332;2023-03-26T01:22:19;94044.03;;;9.05;100.00
13209;BME280;6669;42.678;23.332;2023-03-26T01:24:49;94051.75;;;9.13;100.00
13209;BME280;6669;42.678;23.332;2023-03-26T01:27:30;94058.25;;;9.09;100.00
13209;BME280;6669;42.678;23.332;2023-03-26T01:30:12;94059.06;;;9.09;100.00
13209;BME280;6669;42.678;23.332;2023-03-26T01:32:50;94086.59;;;9.10;100.00
13209;BME280;6669;42.678;23.332;2023-03-26T01:35:32;94040.00;;;8.87;100.00
13209;BME280;6669;42.678;23.332;2023-03-26T01:38:12;94050.72;;;8.99;100.00
13209;BME280;6669;42.678;23.332;2023-03-26T01:40:54;94071.38;;;9.07;100.00
13209;BME280;6669;42.678;23.332;2023-03-26T01:43:30;94062.06;;;8.98;100.00
13209;BME280;6669;42.678;23.332;2023-03-26T01:46:04;94048.66;;;8.94;100.00
13209;BME280;6669;42.678;23.332;2023-03-26T01:48:34;94028.06;;;8.78;100.00
13209;BME280;6669;42.678;23.332;2023-03-26T01:51:05;94055.91;;;8.99;100.00
13209;BME280;6669;42.678;23.332;2023-03-26T01:53:36;94071.94;;;9.03;100.00
13209;BME280;6669;42.678;23.332;2023-03-26T01:56:11;94064.03;;;8.96;100.00
13209;BME280;6669;42.678;23.332;2023-03-26T01:58:54;94074.97;;;9.06;100.00
13209;BME280;6669;42.678;23.332;2023-03-26T02:01:29;94071.09;;;9.02;100.00
13209;BME280;6669;42.678;23.332;2023-03-26T02:04:07;94050.69;;;8.84;100.00
13209;BME280;6669;42.678;23.332;2023-03-26T02:06:42;94066.00;;;8.94;100.00
13209;BME280;6669;42.678;23.332;2023-03-26T02:09:14;94047.91;;;8.71;100.00
13209;BME280;6669;42.678;23.332;2023-03-26T02:11:45;94066.31;;;8.76;100.00
13209;BME280;6669;42.678;23.332;2023-03-26T02:14:15;94046.34;;;8.61;100.00
13209;BME280;6669;42.678;23.332;2023-03-26T02:16:44;94062.34;;;8.65;100.00
13209;BME280;6669;42.678;23.332;2023-03-26T02:19:14;94048.53;;;8.49;100.00
13209;BME280;6669;42.678;23.332;2023-03-26T02:21:47;94078.56;;;8.59;100.00
13209;BME280;6669;42.678;23.332;2023-03-26T02:24:17;94076.63;;;8.61;100.00
13209;BME280;6669;42.678;23.332;2023-03-26T02:26:46;94037.28;;;8.34;100.00
13209;BME280;6669;42.678;23.332;2023-03-26T02:29:15;94043.72;;;8.38;100.00
13209;BME280;6669;42.678;23.332;2023-03-26T02:31:46;94047.47;;;8.35;100.00
13209;BME280;6669;42.678;23.332;2023-03-26T02:34:15;94062.94;;;8.52;100.00
13209;BME280;6669;42.678;23.332;2023-03-26T02:36:43;94040.16;;;8.39;100.00
13209;BME280;6669;42.678;23.332;2023-03-26T02:39:12;94074.31;;;8.66;100.00
13209;BME280;6669;42.678;23.332;2023-03-26T02:41:40;94068.69;;;8.62;100.00
13209;BME280;6669;42.678;23.332;2023-03-26T02:44:10;94086.13;;;8.69;100.00
13209;BME280;6669;42.678;23.332;2023-03-26T02:46:38;94072.72;;;8.65;100.00
13209;BME280;6669;42.678;23.332;2023-03-26T02:49:06;94059.06;;;8.48;100.00
13209;BME280;6669;42.678;23.332;2023-03-26T02:51:34;94096.03;;;8.65;100.00
13209;BME280;6669;42.678;23.332;2023-03-26T02:54:03;94084.81;;;8.49;100.00
13209;BME280;6669;42.678;23.332;2023-03-26T02:56:32;94113.94;;;8.52;100.00
13209;BME280;6669;42.678;23.332;2023-03-26T02:59:01;94097.16;;;8.31;100.00
13209;BME280;6669;42.678;23.332;2023-03-26T03:01:30;94105.41;;;8.34;100.00
13209;BME280;6669;42.678;23.332;2023-03-26T03:04:01;94090.22;;;8.31;100.00
13209;BME280;6669;42.678;23.332;2023-03-26T03:06:30;94073.97;;;8.14;100.00
13209;BME280;6669;42.678;23.332;2023-03-26T03:08:58;94113.72;;;8.30;100.00
13209;BME280;6669;42.678;23.332;2023-03-26T03:11:28;94080.00;;;8.07;100.00
13209;BME280;6669;42.678;23.332;2023-03-26T03:13:56;94101.09;;;8.27;100.00
13209;BME280;6669;42.678;23.332;2023-03-26T03:16:24;94077.75;;;8.04;100.00
13209;BME280;6669;42.678;23.332;2023-03-26T03:18:54;94098.88;;;8.15;100.00
13209;BME280;6669;42.678;23.332;2023-03-26T03:21:25;94089.91;;;7.95;100.00
13209;BME280;6669;42.678;23.332;2023-03-26T03:23:53;94132.59;;;8.07;100.00
13209;BME280;6669;42.678;23.332;2023-03-26T03:26:28;94110.59;;;8.03;100.00
13209;BME280;6669;42.678;23.332;2023-03-26T03:28:57;94119.84;;;7.97;100.00
13209;BME280;6669;42.678;23.332;2023-03-26T03:31:25;94083.88;;;7.71;100.00
13209;BME280;6669;42.678;23.332;2023-03-26T03:33:55;94089.31;;;7.84;100.00
13209;BME280;6669;42.678;23.332;2023-03-26T03:36:23;94090.00;;;7.78;100.00
13209;BME280;6669;42.678;23.332;2023-03-26T03:38:53;94095.50;;;7.75;100.00
13209;BME280;6669;42.678;23.332;2023-03-26T03:41:21;94108.91;;;7.79;100.00
13209;BME280;6669;42.678;23.332;2023-03-26T03:43:49;94099.84;;;7.83;100.00
13209;BME280;6669;42.678;23.332;2023-03-26T03:46:17;94103.53;;;7.89;100.00
13209;BME280;6669;42.678;23.332;2023-03-26T03:48:45;94063.41;;;7.53;100.00
13209;BME280;6669;42.678;23.332;2023-03-26T03:51:17;94102.63;;;7.73;100.00
13209;BME280;6669;42.678;23.332;2023-03-26T03:53:45;94115.69;;;7.80;100.00
13209;BME280;6669;42.678;23.332;2023-03-26T03:56:13;94123.97;;;7.75;100.00
13209;BME280;6669;42.678;23.332;2023-03-26T03:58:44;94106.47;;;7.77;100.00
13209;BME280;6669;42.678;23.332;2023-03-26T04:01:13;94126.38;;;7.77;100.00
13209;BME280;6669;42.678;23.332;2023-03-26T04:03:42;94113.81;;;7.65;100.00
13209;BME280;6669;42.678;23.332;2023-03-26T04:06:12;94119.25;;;7.79;100.00
13209;BME280;6669;42.678;23.332;2023-03-26T04:08:46;94122.81;;;7.78;100.00
13209;BME280;6669;42.678;23.332;2023-03-26T04:11:14;94105.88;;;7.67;100.00
13209;BME280;6669;42.678;23.332;2023-03-26T04:13:42;94118.50;;;7.62;100.00
13209;BME280;6669;42.678;23.332;2023-03-26T04:16:10;94122.03;;;7.69;100.00
13209;BME280;6669;42.678;23.332;2023-03-26T04:18:39;94122.88;;;7.61;100.00
13209;BME280;6669;42.678;23.332;2023-03-26T04:21:07;94174.88;;;7.83;100.00
13209;BME280;6669;42.678;23.332;2023-03-26T04:23:38;94164.69;;;7.81;100.00
13209;BME280;6669;42.678;23.332;2023-03-26T04:26:14;94151.47;;;7.68;100.00
13209;BME280;6669;42.678;23.332;2023-03-26T04:28:44;94165.81;;;7.79;100.00
13209;BME280;6669;42.678;23.332;2023-03-26T04:31:16;94198.31;;;7.90;100.00
13209;BME280;6669;42.678;23.332;2023-03-26T04:33:50;94188.63;;;7.83;100.00
13209;BME280;6669;42.678;23.332;2023-03-26T04:36:25;94157.47;;;7.60;100.00
13209;BME280;6669;42.678;23.332;2023-03-26T04:38:54;94166.03;;;7.69;100.00
13209;BME280;6669;42.678;23.332;2023-03-26T04:41:29;94192.16;;;7.82;100.00
13209;BME280;6669;42.678;23.332;2023-03-26T04:43:58;94215.28;;;7.92;100.00
13209;BME280;6669;42.678;23.332;2023-03-26T04:46:27;94192.81;;;7.76;100.00
13209;BME280;6669;42.678;23.332;2023-03-26T04:48:59;94216.72;;;7.95;100.00
13209;BME280;6669;42.678;23.332;2023-03-26T04:51:32;94199.44;;;7.87;100.00
13209;BME280;6669;42.678;23.332;2023-03-26T04:54:04;94214.63;;;7.98;100.00
13209;BME280;6669;42.678;23.332;2023-03-26T04:56:39;94205.72;;;8.01;100.00
13209;BME280;6669;42.678;23.332;2023-03-26T04:59:21;94226.56;;;8.16;100.00
13209;BME280;6669;42.678;23.332;2023-03-26T05:01:51;94222.00;;;8.18;100.00
13209;BME280;6669;42.678;23.332;2023-03-26T05:04:20;94216.66;;;8.19;100.00
13209;BME280;6669;42.678;23.332;2023-03-26T05:06:48;94203.09;;;8.09;100.00
13209;BME280;6669;42.678;23.332;2023-03-26T05:09:18;94198.75;;;8.10;100.00
13209;BME280;6669;42.678;23.332;2023-03-26T05:11:47;94209.56;;;8.13;100.00
13209;BME280;6669;42.678;23.332;2023-03-26T05:14:16;94224.91;;;8.23;100.00
13209;BME280;6669;42.678;23.332;2023-03-26T05:16:46;94222.78;;;8.27;100.00
13209;BME280;6669;42.678;23.332;2023-03-26T05:19:16;94242.00;;;8.49;100.00
13209;BME280;6669;42.678;23.332;2023-03-26T05:21:44;94215.19;;;8.25;100.00
13209;BME280;6669;42.678;23.332;2023-03-26T05:24:12;94232.13;;;8.36;100.00
13209;BME280;6669;42.678;23.332;2023-03-26T05:26:40;94213.94;;;8.13;100.00
13209;BME280;6669;42.678;23.332;2023-03-26T05:29:16;94186.47;;;7.95;100.00
13209;BME280;6669;42.678;23.332;2023-03-26T05:31:44;94237.53;;;8.18;100.00
13209;BME280;6669;42.678;23.332;2023-03-26T05:34:14;94201.69;;;7.90;100.00
13209;BME280;6669;42.678;23.332;2023-03-26T05:36:42;94251.13;;;8.20;100.00
13209;BME280;6669;42.678;23.332;2023-03-26T05:39:20;94250.69;;;8.08;100.00
13209;BME280;6669;42.678;23.332;2023-03-26T05:41:53;94268.31;;;8.05;100.00
13209;BME280;6669;42.678;23.332;2023-03-26T05:44:24;94208.34;;;7.76;100.00
13209;BME280;6669;42.678;23.332;2023-03-26T05:46:53;94257.81;;;8.06;100.00
13209;BME280;6669;42.678;23.332;2023-03-26T05:49:21;94263.94;;;8.05;100.00
13209;BME280;6669;42.678;23.332;2023-03-26T05:51:51;94237.25;;;7.96;100.00
13209;BME280;6669;42.678;23.332;2023-03-26T05:54:21;94237.09;;;7.98;100.00
13209;BME280;6669;42.678;23.332;2023-03-26T05:56:49;94254.56;;;8.12;100.00
13209;BME280;6669;42.678;23.332;2023-03-26T05:59:23;94254.38;;;8.22;100.00
13209;BME280;6669;42.678;23.332;2023-03-26T06:01:57;94251.88;;;8.37;100.00
13209;BME280;6669;42.678;23.332;2023-03-26T06:04:29;94214.53;;;8.23;100.00
13209;BME280;6669;42.678;23.332;2023-03-26T06:07:12;94240.22;;;8.41;100.00
13209;BME280;6669;42.678;23.332;2023-03-26T06:09:40;94279.22;;;8.40;100.00
13209;BME280;6669;42.678;23.332;2023-03-26T06:12:09;94241.22;;;8.32;100.00
13209;BME280;6669;42.678;23.332;2023-03-26T06:14:38;94270.19;;;8.35;100.00
13209;BME280;6669;42.678;23.332;2023-03-26T06:17:12;94237.47;;;8.34;100.00
13209;BME280;6669;42.678;23.332;2023-03-26T06:19:40;94250.41;;;8.43;100.00
13209;BME280;6669;42.678;23.332;2023-03-26T06:22:08;94256.72;;;8.48;100.00
13209;BME280;6669;42.678;23.332;2023-03-26T06:24:40;94252.81;;;8.53;100.00
13209;BME280;6669;42.678;23.332;2023-03-26T06:27:08;94245.84;;;8.45;100.00
13209;BME280;6669;42.678;23.332;2023-03-26T06:29:39;94234.22;;;8.41;100.00
13209;BME280;6669;42.678;23.332;2023-03-26T06:32:07;94237.06;;;8.71;100.00
13209;BME280;6669;42.678;23.332;2023-03-26T06:34:47;94222.03;;;8.58;100.00
13209;BME280;6669;42.678;23.332;2023-03-26T06:37:15;94257.56;;;8.80;100.00
13209;BME280;6669;42.678;23.332;2023-03-26T06:39:52;94209.91;;;8.58;100.00
13209;BME280;6669;42.678;23.332;2023-03-26T06:42:25;94232.69;;;8.94;100.00
13209;BME280;6669;42.678;23.332;2023-03-26T06:45:14;94250.91;;;9.09;100.00
13209;BME280;6669;42.678;23.332;2023-03-26T06:47:42;94241.78;;;8.90;100.00
13209;BME280;6669;42.678;23.332;2023-03-26T06:50:11;94249.50;;;8.98;100.00
13209;BME280;6669;42.678;23.332;2023-03-26T06:52:40;94266.22;;;8.96;100.00
13209;BME280;6669;42.678;23.332;2023-03-26T06:55:08;94268.88;;;8.88;100.00
13209;BME280;6669;42.678;23.332;2023-03-26T06:57:38;94270.25;;;8.98;100.00
13209;BME280;6669;42.678;23.332;2023-03-26T07:00:12;94282.47;;;8.90;100.00
13209;BME280;6669;42.678;23.332;2023-03-26T07:02:40;94259.91;;;8.67;100.00
13209;BME280;6669;42.678;23.332;2023-03-26T07:05:09;94261.00;;;8.73;100.00
13209;BME280;6669;42.678;23.332;2023-03-26T07:07:39;94257.25;;;8.75;100.00
13209;BME280;6669;42.678;23.332;2023-03-26T07:10:13;94271.06;;;8.99;100.00
13209;BME280;6669;42.678;23.332;2023-03-26T07:12:44;94284.34;;;9.27;100.00
13209;BME280;6669;42.678;23.332;2023-03-26T07:15:13;94278.59;;;9.40;100.00
13209;BME280;6669;42.678;23.332;2023-03-26T07:17:41;94271.06;;;9.30;100.00
13209;BME280;6669;42.678;23.332;2023-03-26T07:20:10;94266.72;;;9.23;100.00
13209;BME280;6669;42.678;23.332;2023-03-26T07:22:42;94263.31;;;9.22;100.00
13209;BME280;6669;42.678;23.332;2023-03-26T07:25:12;94267.34;;;9.25;100.00
13209;BME280;6669;42.678;23.332;2023-03-26T07:27:49;94207.59;;;8.95;100.00
13209;BME280;6669;42.678;23.332;2023-03-26T07:30:26;94256.66;;;9.28;100.00
13209;BME280;6669;42.678;23.332;2023-03-26T07:32:59;94252.13;;;9.45;100.00
13209;BME280;6669;42.678;23.332;2023-03-26T07:35:34;94230.53;;;9.29;100.00
13209;BME280;6669;42.678;23.332;2023-03-26T07:38:27;94252.00;;;9.61;100.00
13209;BME280;6669;42.678;23.332;2023-03-26T07:41:06;94253.84;;;9.53;100.00
13209;BME280;6669;42.678;23.332;2023-03-26T07:43:59;94256.31;;;9.69;100.00
13209;BME280;6669;42.678;23.332;2023-03-26T07:46:32;94248.84;;;9.89;100.00
13209;BME280;6669;42.678;23.332;2023-03-26T07:49:03;94252.91;;;10.07;100.00
13209;BME280;6669;42.678;23.332;2023-03-26T07:51:32;94254.63;;;10.14;100.00
13209;BME280;6669;42.678;23.332;2023-03-26T07:54:02;94238.38;;;10.12;100.00
13209;BME280;6669;42.678;23.332;2023-03-26T07:56:33;94218.78;;;10.10;100.00
13209;BME280;6669;42.678;23.332;2023-03-26T07:59:11;94246.13;;;10.36;100.00
13209;BME280;6669;42.678;23.332;2023-03-26T08:01:58;94243.22;;;10.30;100.00
13209;BME280;6669;42.678;23.332;2023-03-26T08:04:48;94207.03;;;10.29;100.00
13209;BME280;6669;42.678;23.332;2023-03-26T08:07:29;94246.81;;;10.74;100.00
13209;BME280;6669;42.678;23.332;2023-03-26T08:10:09;94238.47;;;10.79;100.00
13209;BME280;6669;42.678;23.332;2023-03-26T08:12:46;94227.78;;;10.89;100.00
13209;BME280;6669;42.678;23.332;2023-03-26T08:15:21;94215.81;;;10.94;100.00
13209;BME280;6669;42.678;23.332;2023-03-26T08:18:00;94244.19;;;11.11;100.00
13209;BME280;6669;42.678;23.332;2023-03-26T08:20:36;94255.06;;;10.78;100.00
13209;BME280;6669;42.678;23.332;2023-03-26T08:23:13;94247.53;;;10.68;100.00
13209;BME280;6669;42.678;23.332;2023-03-26T08:25:52;94242.38;;;10.90;100.00
13209;BME280;6669;42.678;23.332;2023-03-26T08:28:34;94226.72;;;10.83;100.00
13209;BME280;6669;42.678;23.332;2023-03-26T08:31:06;94213.72;;;10.83;100.00
13209;BME280;6669;42.678;23.332;2023-03-26T08:33:36;94241.28;;;10.99;100.00
13209;BME280;6669;42.678;23.332;2023-03-26T08:36:07;94238.56;;;10.86;100.00
13209;BME280;6669;42.678;23.332;2023-03-26T08:38:35;94242.13;;;10.85;100.00
13209;BME280;6669;42.678;23.332;2023-03-26T08:56:50;94229.19;;;11.78;100.00
13209;BME280;6669;42.678;23.332;2023-03-26T09:02:41;94236.06;;;11.86;100.00
13209;BME280;6669;42.678;23.332;2023-03-26T09:05:42;94224.19;;;11.76;97.13
13209;BME280;6669;42.678;23.332;2023-03-26T09:08:39;94238.59;;;12.01;95.88
13209;BME280;6669;42.678;23.332;2023-03-26T09:11:57;94208.25;;;11.93;94.86
13209;BME280;6669;42.678;23.332;2023-03-26T09:15:19;94240.03;;;12.03;95.78
13209;BME280;6669;42.678;23.332;2023-03-26T09:18:28;94203.16;;;12.06;94.50
13209;BME280;6669;42.678;23.332;2023-03-26T09:21:22;94224.31;;;12.25;91.20
13209;BME280;6669;42.678;23.332;2023-03-26T09:27:37;94199.75;;;12.06;90.48
13209;BME280;6669;42.678;23.332;2023-03-26T09:30:32;94224.00;;;12.41;83.10
13209;BME280;6669;42.678;23.332;2023-03-26T09:33:30;94206.09;;;12.32;87.19
13209;BME280;6669;42.678;23.332;2023-03-26T09:36:20;94203.47;;;12.25;82.97
13209;BME280;6669;42.678;23.332;2023-03-26T09:38:51;94200.41;;;12.15;82.21
13209;BME280;6669;42.678;23.332;2023-03-26T09:41:34;94214.88;;;12.24;79.55
13209;BME280;6669;42.678;23.332;2023-03-26T09:47:26;94211.03;;;12.55;79.64
13209;BME280;6669;42.678;23.332;2023-03-26T09:50:14;94206.66;;;12.69;80.52
13209;BME280;6669;42.678;23.332;2023-03-26T09:52:55;94197.25;;;12.68;78.33
13209;BME280;6669;42.678;23.332;2023-03-26T09:55:43;94217.28;;;12.61;76.42
13209;BME280;6669;42.678;23.332;2023-03-26T09:58:29;94180.34;;;12.57;75.59
13209;BME280;6669;42.678;23.332;2023-03-26T10:01:04;94179.91;;;12.47;78.38
13209;BME280;6669;42.678;23.332;2023-03-26T10:03:44;94189.03;;;12.71;77.76
13209;BME280;6669;42.678;23.332;2023-03-26T10:06:29;94179.97;;;12.60;75.67
13209;BME280;6669;42.678;23.332;2023-03-26T10:09:28;94144.03;;;12.49;75.58
13209;BME280;6669;42.678;23.332;2023-03-26T10:12:11;94161.66;;;13.08;74.89
13209;BME280;6669;42.678;23.332;2023-03-26T10:14:54;94174.50;;;13.30;68.26
13209;BME280;6669;42.678;23.332;2023-03-26T10:17:36;94138.38;;;13.67;68.40
13209;BME280;6669;42.678;23.332;2023-03-26T10:20:28;94149.13;;;14.18;65.48
13209;BME280;6669;42.678;23.332;2023-03-26T10:23:12;94151.41;;;14.53;62.46
13209;BME280;6669;42.678;23.332;2023-03-26T10:26:01;94154.25;;;14.97;60.08
13209;BME280;6669;42.678;23.332;2023-03-26T10:28:42;94140.50;;;15.33;59.66
13209;BME280;6669;42.678;23.332;2023-03-26T10:31:39;94143.50;;;15.62;56.96
13209;BME280;6669;42.678;23.332;2023-03-26T10:37:09;94143.66;;;15.42;57.08
13209;BME280;6669;42.678;23.332;2023-03-26T10:39:57;94138.47;;;15.35;56.77
13209;BME280;6669;42.678;23.332;2023-03-26T10:42:43;94105.06;;;15.81;56.93
13209;BME280;6669;42.678;23.332;2023-03-26T10:45:35;94117.06;;;16.26;55.24
13209;BME280;6669;42.678;23.332;2023-03-26T10:51:39;94100.66;;;15.75;54.51
13209;BME280;6669;42.678;23.332;2023-03-26T10:54:14;94133.63;;;15.64;54.69
13209;BME280;6669;42.678;23.332;2023-03-26T10:56:48;94132.53;;;15.72;53.87
13209;BME280;6669;42.678;23.332;2023-03-26T10:59:17;94115.78;;;16.17;52.35
13209;BME280;6669;42.678;23.332;2023-03-26T11:01:50;94102.88;;;16.64;52.42
13209;BME280;6669;42.678;23.332;2023-03-26T11:04:29;94099.44;;;16.33;51.76
13209;BME280;6669;42.678;23.332;2023-03-26T11:07:12;94086.13;;;16.65;51.76
13209;BME280;6669;42.678;23.332;2023-03-26T11:09:48;94101.00;;;16.83;50.78
13209;BME280;6669;42.678;23.332;2023-03-26T11:12:25;94110.22;;;16.93;49.38
13209;BME280;6669;42.678;23.332;2023-03-26T11:15:05;94093.13;;;17.02;48.82
13209;BME280;6669;42.678;23.332;2023-03-26T11:17:45;94099.22;;;16.84;49.05
13209;BME280;6669;42.678;23.332;2023-03-26T11:20:18;94092.72;;;16.87;49.12
13209;BME280;6669;42.678;23.332;2023-03-26T11:22:56;94094.28;;;17.18;48.78
13209;BME280;6669;42.678;23.332;2023-03-26T11:25:43;94102.91;;;16.95;47.37
13209;BME280;6669;42.678;23.332;2023-03-26T11:28:25;94059.66;;;16.67;47.12
13209;BME280;6669;42.678;23.332;2023-03-26T11:31:03;94062.97;;;16.93;47.53
13209;BME280;6669;42.678;23.332;2023-03-26T11:33:38;94082.38;;;17.04;48.37
13209;BME280;6669;42.678;23.332;2023-03-26T11:36:18;94057.50;;;17.18;48.37
13209;BME280;6669;42.678;23.332;2023-03-26T11:38:49;94063.22;;;17.15;48.18
13209;BME280;6669;42.678;23.332;2023-03-26T11:41:20;94068.59;;;17.91;48.44
13209;BME280;6669;42.678;23.332;2023-03-26T11:43:54;94067.59;;;17.69;46.25
13209;BME280;6669;42.678;23.332;2023-03-26T11:46:25;94060.84;;;17.96;45.10
13209;BME280;6669;42.678;23.332;2023-03-26T11:48:56;94043.84;;;18.16;44.55
13209;BME280;6669;42.678;23.332;2023-03-26T11:51:29;94017.22;;;18.41;45.21
13209;BME280;6669;42.678;23.332;2023-03-26T11:53:58;94006.25;;;18.90;44.68
13209;BME280;6669;42.678;23.332;2023-03-26T11:56:29;94014.41;;;19.62;44.15
13209;BME280;6669;42.678;23.332;2023-03-26T11:59:03;94003.44;;;19.87;43.45
13209;BME280;6669;42.678;23.332;2023-03-26T12:01:51;94010.97;;;20.23;43.30
13209;BME280;6669;42.678;23.332;2023-03-26T12:04:32;94004.28;;;20.15;43.66
13209;BME280;6669;42.678;23.332;2023-03-26T12:07:06;94014.41;;;19.79;44.02
13209;BME280;6669;42.678;23.332;2023-03-26T12:09:36;93995.66;;;19.19;43.68
13209;BME280;6669;42.678;23.332;2023-03-26T12:12:05;93998.47;;;19.74;44.18
13209;BME280;6669;42.678;23.332;2023-03-26T12:14:34;94000.34;;;19.17;42.65
13209;BME280;6669;42.678;23.332;2023-03-26T12:17:13;93977.66;;;18.82;42.67
13209;BME280;6669;42.678;23.332;2023-03-26T12:19:43;93967.94;;;19.17;42.92
13209;BME280;6669;42.678;23.332;2023-03-26T12:22:27;93976.78;;;19.27;42.79
13209;BME280;6669;42.678;23.332;2023-03-26T12:25:14;93992.78;;;19.21;41.73
13209;BME280;6669;42.678;23.332;2023-03-26T12:27:43;93987.78;;;19.81;41.62
13209;BME280;6669;42.678;23.332;2023-03-26T12:30:20;93971.19;;;19.24;41.73
13209;BME280;6669;42.678;23.332;2023-03-26T12:32:50;93963.63;;;19.50;41.87
13209;BME280;6669;42.678;23.332;2023-03-26T12:35:23;93958.91;;;20.40;41.09
13209;BME280;6669;42.678;23.332;2023-03-26T12:37:54;93940.19;;;19.92;40.24
13209;BME280;6669;42.678;23.332;2023-03-26T12:40:29;93931.91;;;20.33;40.75
13209;BME280;6669;42.678;23.332;2023-03-26T12:43:00;93936.72;;;19.87;38.58
13209;BME280;6669;42.678;23.332;2023-03-26T12:45:54;93933.94;;;19.15;39.06
13209;BME280;6669;42.678;23.332;2023-03-26T12:48:44;93946.97;;;19.44;39.37
13209;BME280;6669;42.678;23.332;2023-03-26T12:51:18;93907.25;;;19.11;38.39
13209;BME280;6669;42.678;23.332;2023-03-26T12:54:01;93914.41;;;19.33;38.16
13209;BME280;6669;42.678;23.332;2023-03-26T12:56:42;93940.94;;;19.26;38.06
13209;BME280;6669;42.678;23.332;2023-03-26T12:59:30;93927.81;;;19.32;38.22
13209;BME280;6669;42.678;23.332;2023-03-26T13:02:20;93937.50;;;18.41;38.49
13209;BME280;6669;42.678;23.332;2023-03-26T13:05:07;93945.41;;;18.41;38.43
13209;BME280;6669;42.678;23.332;2023-03-26T13:07:50;93936.31;;;18.66;39.13
13209;BME280;6669;42.678;23.332;2023-03-26T13:10:36;93922.50;;;18.24;37.45
13209;BME280;6669;42.678;23.332;2023-03-26T13:13:23;93947.78;;;18.42;38.01
13209;BME280;6669;42.678;23.332;2023-03-26T13:15:59;93922.59;;;18.46;38.61
13209;BME280;6669;42.678;23.332;2023-03-26T13:18:42;93893.56;;;18.75;37.81
13209;BME280;6669;42.678;23.332;2023-03-26T13:21:18;93904.97;;;19.59;37.88
13209;BME280;6669;42.678;23.332;2023-03-26T13:23:53;93900.31;;;19.89;36.88
13209;BME280;6669;42.678;23.332;2023-03-26T13:26:39;93912.34;;;20.29;35.35
13209;BME280;6669;42.678;23.332;2023-03-26T13:29:20;93919.13;;;19.53;36.27
13209;BME280;6669;42.678;23.332;2023-03-26T13:31:55;93928.88;;;18.91;36.71
13209;BME280;6669;42.678;23.332;2023-03-26T13:34:32;93914.56;;;18.70;36.65
13209;BME280;6669;42.678;23.332;2023-03-26T13:37:07;93913.97;;;19.19;37.91
13209;BME280;6669;42.678;23.332;2023-03-26T13:39:49;93906.59;;;19.60;37.59
13209;BME280;6669;42.678;23.332;2023-03-26T13:42:36;93935.72;;;19.32;36.36
13209;BME280;6669;42.678;23.332;2023-03-26T13:45:19;93916.09;;;19.00;36.69
13209;BME280;6669;42.678;23.332;2023-03-26T13:47:54;93917.19;;;19.43;36.58
13209;BME280;6669;42.678;23.332;2023-03-26T13:50:28;93905.44;;;19.51;35.84
13209;BME280;6669;42.678;23.332;2023-03-26T13:52:59;93902.34;;;19.37;36.21
13209;BME280;6669;42.678;23.332;2023-03-26T13:55:32;93921.53;;;19.33;36.80
13209;BME280;6669;42.678;23.332;2023-03-26T13:58:09;93913.44;;;18.83;36.39
13209;BME280;6669;42.678;23.332;2023-03-26T14:00:50;93908.97;;;19.01;36.92
13209;BME280;6669;42.678;23.332;2023-03-26T14:03:26;93910.78;;;18.83;37.22
13209;BME280;6669;42.678;23.332;2023-03-26T14:05:59;93909.28;;;18.70;36.50
13209;BME280;6669;42.678;23.332;2023-03-26T14:08:35;93893.34;;;18.94;36.04
13209;BME280;6669;42.678;23.332;2023-03-26T14:11:08;93909.38;;;19.76;35.50
13209;BME280;6669;42.678;23.332;2023-03-26T14:13:41;93866.06;;;19.22;36.57